createdAt,value
2024-01-25T00:01:02.167Z,97928.50
2024-01-25T00:03:30.068Z,97922.50
2024-01-25T00:05:56.941Z,97917.56
2024-01-25T00:08:25.932Z,97914.03
2024-01-25T00:10:53.623Z,97920.00
2024-01-25T00:13:21.314Z,97910.53
2024-01-25T00:15:48.995Z,97917.06
2024-01-25T00:18:17.284Z,97894.31
2024-01-25T00:20:44.885Z,97903.25
2024-01-25T00:23:13.106Z,97902.22
2024-01-25T00:25:41.085Z,97899.72
2024-01-25T00:28:08.896Z,97899.72
2024-01-25T00:30:36.585Z,97897.69
2024-01-25T00:33:04.702Z,97905.16
2024-01-25T00:35:33.684Z,97906.13
2024-01-25T00:38:02.419Z,97906.13
2024-01-25T00:40:30.478Z,97910.00
2024-01-25T00:43:00.346Z,97909.25
2024-01-25T00:45:28.165Z,97913.78
2024-01-25T00:47:56.498Z,97911.28
2024-01-25T00:50:27.015Z,97914.84
2024-01-25T00:52:55.203Z,97917.50
2024-01-25T00:55:23.714Z,97907.84
2024-01-25T00:57:52.856Z,97900.88
2024-01-25T01:00:23.472Z,97905.81
2024-01-25T01:02:51.357Z,97893.75
2024-01-25T01:05:18.593Z,97895.19
2024-01-25T01:07:47.172Z,97889.63
2024-01-25T01:10:15.739Z,97891.50
2024-01-25T01:12:43.712Z,97891.50
2024-01-25T01:15:11.644Z,97874.44
2024-01-25T01:17:40.646Z,97885.13
2024-01-25T01:20:09.726Z,97887.13
2024-01-25T01:22:37.624Z,97890.38
2024-01-25T01:25:05.964Z,97890.19
2024-01-25T01:27:33.634Z,97895.53
2024-01-25T01:30:01.254Z,97882.38
2024-01-25T01:32:29.070Z,97880.53
2024-01-25T01:34:58.257Z,97885.44
2024-01-25T01:37:25.952Z,97896.91
2024-01-25T01:39:56.673Z,97879.09
2024-01-25T01:42:24.518Z,97874.56
2024-01-25T01:44:52.250Z,97883.66
2024-01-25T01:47:20.287Z,97880.53
2024-01-25T01:49:49.098Z,97891.47
2024-01-25T01:52:19.921Z,97866.69
2024-01-25T01:54:48.670Z,97893.22
2024-01-25T01:57:16.480Z,97880.91
2024-01-25T01:59:44.068Z,97886.69
2024-01-25T02:02:11.826Z,97897.56
2024-01-25T02:04:40.242Z,97894.06
2024-01-25T02:07:08.162Z,97900.44
2024-01-25T02:09:37.360Z,97896.81
2024-01-25T02:12:05.966Z,97890.44
2024-01-25T02:14:33.640Z,97897.19
2024-01-25T02:17:01.351Z,97893.88
2024-01-25T02:19:29.148Z,97893.44
2024-01-25T02:21:59.373Z,97886.50
2024-01-25T02:24:28.714Z,97894.94
2024-01-25T02:26:56.514Z,97892.91
2024-01-25T02:29:24.252Z,97885.94
2024-01-25T02:31:52.078Z,97883.00
2024-01-25T02:34:19.953Z,97882.22
2024-01-25T02:36:47.669Z,97876.78
2024-01-25T02:39:15.308Z,97878.56
2024-01-25T02:41:44.256Z,97883.66
2024-01-25T02:44:13.387Z,97887.38
2024-01-25T02:46:40.962Z,97888.59
2024-01-25T02:49:08.915Z,97889.00
2024-01-25T02:51:36.660Z,97890.78
2024-01-25T02:54:05.054Z,97883.13
2024-01-25T02:56:36.109Z,97883.41
2024-01-25T02:59:05.153Z,97890.88
2024-01-25T03:01:40.144Z,97892.09
2024-01-25T03:04:08.112Z,97894.13
2024-01-25T03:06:36.054Z,97885.06
2024-01-25T03:09:05.663Z,97868.41
2024-01-25T03:11:33.316Z,97882.13
2024-01-25T03:14:01.059Z,97886.38
2024-01-25T03:16:30.234Z,97901.63
2024-01-25T03:18:58.005Z,97900.63
2024-01-25T03:21:25.707Z,97895.06
2024-01-25T03:23:53.870Z,97899.28
2024-01-25T03:26:21.511Z,97895.41
2024-01-25T03:28:49.157Z,97900.56
2024-01-25T03:31:18.060Z,97916.75
2024-01-25T03:33:47.321Z,97900.78
2024-01-25T03:36:16.053Z,97909.00
2024-01-25T03:38:44.421Z,97911.72
2024-01-25T03:41:12.508Z,97914.56
2024-01-25T03:43:44.221Z,97909.63
2024-01-25T03:46:12.825Z,97923.16
2024-01-25T03:48:40.653Z,97904.88
2024-01-25T03:51:09.704Z,97912.44
2024-01-25T03:53:37.344Z,97919.16
2024-01-25T03:56:05.447Z,97917.13
2024-01-25T03:58:33.330Z,97919.78
2024-01-25T04:01:01.178Z,97922.66
2024-01-25T04:03:29.022Z,97931.31
2024-01-25T04:05:56.795Z,97918.72
2024-01-25T04:08:25.785Z,97918.09
2024-01-25T04:10:53.493Z,97913.75
2024-01-25T04:13:21.228Z,97909.50
2024-01-25T04:15:48.955Z,97918.78
2024-01-25T04:18:16.731Z,97912.81
2024-01-25T04:20:46.029Z,97917.13
2024-01-25T04:23:13.827Z,97918.97
2024-01-25T04:25:43.048Z,97911.78
2024-01-25T04:28:10.762Z,97909.13
2024-01-25T04:30:38.480Z,97921.84
2024-01-25T04:33:07.109Z,97926.72
2024-01-25T04:35:35.524Z,97939.22
2024-01-25T04:38:03.507Z,97933.25
2024-01-25T04:40:31.345Z,97945.13
2024-01-25T04:43:01.018Z,97945.75
2024-01-25T04:45:28.675Z,97946.03
2024-01-25T04:47:56.386Z,97938.03
2024-01-25T04:50:24.267Z,97941.84
2024-01-25T04:52:51.939Z,97941.00
2024-01-25T04:55:21.351Z,97948.72
2024-01-25T04:57:52.446Z,97956.56
2024-01-25T05:00:23.972Z,97965.19
2024-01-25T05:02:51.953Z,97959.84
2024-01-25T05:05:19.677Z,97965.19
2024-01-25T05:07:47.553Z,97970.78
2024-01-25T05:10:15.388Z,97959.09
2024-01-25T05:12:43.573Z,97955.16
2024-01-25T05:15:11.703Z,97945.69
2024-01-25T05:17:40.765Z,97955.25
2024-01-25T05:20:09.903Z,97955.47
2024-01-25T05:22:41.385Z,97955.03
2024-01-25T05:25:11.044Z,97954.81
2024-01-25T05:27:38.875Z,97937.38
2024-01-25T05:30:08.165Z,97969.75
2024-01-25T05:32:36.831Z,97967.69
2024-01-25T05:35:07.026Z,97965.31
2024-01-25T05:37:34.928Z,97962.63
2024-01-25T05:40:02.690Z,97973.69
2024-01-25T05:42:30.506Z,97971.94
2024-01-25T05:44:58.264Z,97965.91
2024-01-25T05:47:26.509Z,97953.31
2024-01-25T05:49:54.233Z,97957.34
2024-01-25T05:52:23.383Z,97964.25
2024-01-25T05:54:51.798Z,97965.63
2024-01-25T05:57:20.372Z,97974.03
2024-01-25T05:59:48.601Z,97957.09
2024-01-25T06:02:16.895Z,97970.97
2024-01-25T06:04:45.912Z,97976.41
2024-01-25T06:07:13.890Z,97979.69
2024-01-25T06:09:43.439Z,97970.69
2024-01-25T06:12:11.626Z,97964.91
2024-01-25T06:14:39.298Z,97947.28
2024-01-25T06:17:07.852Z,97982.53
2024-01-25T06:19:36.021Z,97980.38
2024-01-25T06:22:04.620Z,97984.22
2024-01-25T06:24:32.355Z,97979.41
2024-01-25T06:27:01.646Z,97983.28
2024-01-25T06:29:29.327Z,97976.28
2024-01-25T06:31:56.940Z,97990.19
2024-01-25T06:34:24.651Z,97981.19
2024-01-25T06:36:52.521Z,97975.50
2024-01-25T06:39:20.250Z,97975.28
2024-01-25T06:41:47.951Z,97983.84
2024-01-25T06:44:17.895Z,97988.34
2024-01-25T06:46:45.463Z,97991.19
2024-01-25T06:49:13.364Z,97968.50
2024-01-25T06:51:41.104Z,97976.13
2024-01-25T06:54:09.199Z,97986.50
2024-01-25T06:56:37.117Z,97986.59
2024-01-25T06:59:05.112Z,97995.47
2024-01-25T07:01:35.206Z,98005.78
2024-01-25T07:04:04.688Z,98006.31
2024-01-25T07:06:33.118Z,98017.78
2024-01-25T07:09:02.319Z,98018.97
2024-01-25T07:11:30.018Z,98019.34
2024-01-25T07:13:57.710Z,98031.28
2024-01-25T07:16:25.989Z,98044.97
2024-01-25T07:18:55.230Z,98043.31
2024-01-25T07:21:22.977Z,98041.38
2024-01-25T07:23:50.576Z,98036.31
2024-01-25T07:26:19.387Z,98025.66
2024-01-25T07:28:47.424Z,98029.16
2024-01-25T07:31:15.357Z,98036.69
2024-01-25T07:33:43.272Z,98041.63
2024-01-25T07:36:12.751Z,98038.88
2024-01-25T07:38:40.897Z,98063.78
2024-01-25T07:41:08.558Z,98059.00
2024-01-25T07:43:36.775Z,98078.09
2024-01-25T07:46:04.578Z,98076.25
2024-01-25T07:48:32.930Z,98057.53
2024-01-25T07:51:01.110Z,98077.00
2024-01-25T07:53:30.227Z,98083.78
2024-01-25T07:55:57.870Z,98080.56
2024-01-25T07:58:26.597Z,98087.41
2024-01-25T08:00:54.379Z,98063.38
2024-01-25T08:03:22.150Z,98071.00
2024-01-25T08:05:51.629Z,98082.84
2024-01-25T08:08:19.700Z,98080.00
2024-01-25T08:10:48.746Z,98093.16
2024-01-25T08:13:16.534Z,98099.28
2024-01-25T08:15:44.402Z,98109.31
2024-01-25T08:18:12.247Z,98109.59
2024-01-25T08:20:41.041Z,98105.19
2024-01-25T08:23:10.304Z,98104.84
2024-01-25T08:25:39.289Z,98114.78
2024-01-25T08:28:08.519Z,98125.19
2024-01-25T08:30:36.486Z,98124.34
2024-01-25T08:33:04.556Z,98124.94
2024-01-25T08:35:32.716Z,98130.53
2024-01-25T08:38:00.550Z,98106.88
2024-01-25T08:40:30.656Z,98130.28
2024-01-25T08:42:58.846Z,98131.75
2024-01-25T08:45:27.945Z,98140.28
2024-01-25T08:47:57.146Z,98122.34
2024-01-25T08:50:27.521Z,98134.03
2024-01-25T08:52:55.512Z,98139.38
2024-01-25T08:55:23.509Z,98135.06
2024-01-25T08:57:52.053Z,98127.88
2024-01-25T09:00:21.151Z,98139.09
2024-01-25T09:02:50.180Z,98147.09
2024-01-25T09:05:18.047Z,98131.84
2024-01-25T09:07:46.664Z,98141.13
2024-01-25T09:10:14.382Z,98146.47
2024-01-25T09:12:42.808Z,98156.19
2024-01-25T09:15:11.440Z,98149.31
2024-01-25T09:17:39.407Z,98152.63
2024-01-25T09:20:10.247Z,98164.47
2024-01-25T09:22:38.448Z,98158.22
2024-01-25T09:25:09.950Z,98165.03
2024-01-25T09:27:39.393Z,98163.84
2024-01-25T09:30:10.741Z,98170.56
2024-01-25T09:32:38.479Z,98168.44
2024-01-25T09:35:09.325Z,98155.22
2024-01-25T09:37:37.256Z,98178.56
2024-01-25T09:40:06.074Z,98179.28
2024-01-25T09:42:33.802Z,98177.53
2024-01-25T09:45:01.686Z,98183.16
2024-01-25T09:47:29.606Z,98175.16
2024-01-25T09:49:57.593Z,98177.66
2024-01-25T09:52:27.609Z,98189.13
2024-01-25T09:54:56.321Z,98191.16
2024-01-25T09:57:27.978Z,98202.75
2024-01-25T09:59:56.933Z,98193.66
2024-01-25T10:02:25.106Z,98206.81
2024-01-25T10:04:54.110Z,98203.69
2024-01-25T10:07:43.120Z,98201.03
2024-01-25T10:10:11.862Z,98206.53
2024-01-25T10:12:41.163Z,98200.75
2024-01-25T10:15:09.902Z,98207.06
2024-01-25T10:20:11.976Z,98199.25
2024-01-25T10:22:41.001Z,98201.66
2024-01-25T10:25:14.369Z,98197.28
2024-01-25T10:27:43.418Z,98198.28
2024-01-25T10:30:12.525Z,98200.16
2024-01-25T10:32:41.670Z,98193.25
2024-01-25T10:35:10.647Z,98200.97
2024-01-25T10:37:40.672Z,98196.09
2024-01-25T10:40:13.650Z,98195.75
2024-01-25T10:42:41.900Z,98197.28
2024-01-25T10:45:11.126Z,98195.44
2024-01-25T10:47:42.045Z,98191.88
2024-01-25T10:50:10.641Z,98184.66
2024-01-25T10:52:41.508Z,98179.91
2024-01-25T10:55:10.155Z,98176.28
2024-01-25T10:57:39.890Z,98174.94
2024-01-25T11:00:09.983Z,98175.91
2024-01-25T11:02:37.865Z,98168.47
2024-01-25T11:05:09.562Z,98168.59
2024-01-25T11:07:44.175Z,98178.69
2024-01-25T11:10:16.861Z,98173.53
2024-01-25T11:12:58.506Z,98171.09
2024-01-25T11:15:32.266Z,98172.41
2024-01-25T11:18:00.677Z,98162.03
2024-01-25T11:20:30.145Z,98172.34
2024-01-25T11:23:00.423Z,98171.59
2024-01-25T11:25:31.684Z,98155.88
2024-01-25T11:28:01.984Z,98172.25
2024-01-25T11:30:31.894Z,98161.91
2024-01-25T11:32:59.999Z,98168.34
2024-01-25T11:35:28.507Z,98167.22
2024-01-25T11:37:56.973Z,98158.63
2024-01-25T11:40:24.860Z,98158.22
2024-01-25T11:42:53.684Z,98171.28
2024-01-25T11:45:23.790Z,98167.78
2024-01-25T11:47:52.092Z,98170.41
2024-01-25T11:50:20.126Z,98180.56
2024-01-25T11:52:48.168Z,98173.28
2024-01-25T11:55:15.936Z,98177.47
2024-01-25T11:57:43.915Z,98178.75
2024-01-25T12:00:13.293Z,98174.22
2024-01-25T12:02:44.058Z,98174.41
2024-01-25T12:05:13.612Z,98149.31
2024-01-25T12:07:42.416Z,98157.03
2024-01-25T12:10:12.594Z,98154.75
2024-01-25T12:12:40.400Z,98155.09
2024-01-25T12:15:09.360Z,98160.72
2024-01-25T12:17:40.520Z,98145.81
2024-01-25T12:20:12.503Z,98160.00
2024-01-25T12:22:40.988Z,98166.63
2024-01-25T12:25:08.830Z,98163.38
2024-01-25T12:27:36.845Z,98167.44
2024-01-25T12:30:06.373Z,98168.91
2024-01-25T12:32:34.095Z,98167.34
2024-01-25T12:35:03.004Z,98153.47
2024-01-25T12:37:32.294Z,98162.50
2024-01-25T12:40:00.358Z,98158.63
2024-01-25T12:42:28.664Z,98149.50
2024-01-25T12:44:56.827Z,98147.72
2024-01-25T12:47:24.954Z,98147.09
2024-01-25T12:49:52.900Z,98148.13
2024-01-25T12:52:20.762Z,98139.84
2024-01-25T12:54:49.941Z,98139.97
2024-01-25T12:57:17.717Z,98141.34
2024-01-25T12:59:46.146Z,98143.63
2024-01-25T13:02:14.456Z,98129.69
2024-01-25T13:04:42.115Z,98135.53
2024-01-25T13:07:09.886Z,98129.88
2024-01-25T13:09:38.476Z,98135.63
2024-01-25T13:12:08.555Z,98130.38
2024-01-25T13:14:36.252Z,98117.47
2024-01-25T13:17:04.142Z,98118.31
2024-01-25T13:19:31.964Z,98118.50
2024-01-25T13:22:00.023Z,98108.91
2024-01-25T13:24:27.865Z,98110.63
2024-01-25T13:26:55.546Z,98111.22
2024-01-25T13:29:24.511Z,98112.47
2024-01-25T13:31:52.112Z,98105.47
2024-01-25T13:34:19.942Z,98107.56
2024-01-25T13:36:48.107Z,98109.94
2024-01-25T13:39:15.832Z,98119.69
2024-01-25T13:41:43.478Z,98111.59
2024-01-25T13:44:11.150Z,98117.47
2024-01-25T13:46:40.304Z,98123.84
2024-01-25T13:49:08.036Z,98116.81
2024-01-25T13:51:36.786Z,98113.53
2024-01-25T13:54:04.618Z,98105.59
2024-01-25T13:56:32.353Z,98076.38
2024-01-25T13:59:00.000Z,98093.94
2024-01-25T14:01:27.725Z,98099.78
2024-01-25T14:03:56.875Z,98097.56
2024-01-25T14:06:25.377Z,98087.88
2024-01-25T14:08:54.252Z,98100.66
2024-01-25T14:11:22.104Z,98086.88
2024-01-25T14:13:49.946Z,98090.31
2024-01-25T14:16:19.298Z,98086.88
2024-01-25T14:18:48.350Z,98084.47
2024-01-25T14:21:22.034Z,98078.50
2024-01-25T14:23:50.332Z,98087.63
2024-01-25T14:26:18.475Z,98085.19
2024-01-25T14:28:46.240Z,98077.94
2024-01-25T14:31:13.991Z,98077.00
2024-01-25T14:33:45.229Z,98072.31
2024-01-25T14:36:15.205Z,98074.34
2024-01-25T14:38:44.405Z,98086.03
2024-01-25T14:41:12.285Z,98081.28
2024-01-25T14:43:41.028Z,98088.56
2024-01-25T14:46:09.517Z,98092.91
2024-01-25T14:48:37.413Z,98087.31
2024-01-25T14:51:05.130Z,98082.34
2024-01-25T14:53:32.786Z,98073.72
2024-01-25T14:56:02.571Z,98070.31
2024-01-25T14:58:30.609Z,98083.72
2024-01-25T15:00:58.862Z,98075.28
2024-01-25T15:03:26.799Z,98084.00
2024-01-25T15:05:54.664Z,98086.44
2024-01-25T15:08:22.379Z,98084.22
2024-01-25T15:10:50.158Z,98083.81
2024-01-25T15:13:19.263Z,98083.03
2024-01-25T15:15:47.004Z,98073.53
2024-01-25T15:18:14.992Z,98068.50
2024-01-25T15:20:42.923Z,98067.66
2024-01-25T15:23:10.829Z,98063.88
2024-01-25T15:25:38.449Z,98057.81
2024-01-25T15:28:06.455Z,98055.50
2024-01-25T15:30:35.546Z,98058.91
2024-01-25T15:33:03.688Z,98065.63
2024-01-25T15:35:31.409Z,98056.66
2024-01-25T15:37:59.126Z,98065.22
2024-01-25T15:40:26.735Z,98034.56
2024-01-25T15:42:56.859Z,98065.59
2024-01-25T15:45:24.640Z,98061.72
2024-01-25T15:47:53.788Z,98068.41
2024-01-25T15:50:21.553Z,98067.94
2024-01-25T15:52:49.595Z,98070.94
2024-01-25T15:55:17.467Z,98077.66
2024-01-25T15:57:45.369Z,98072.66
2024-01-25T16:00:14.339Z,98073.19
2024-01-25T16:02:42.021Z,98084.19
2024-01-25T16:05:11.477Z,98086.13
2024-01-25T16:07:43.472Z,98089.34
2024-01-25T16:10:13.765Z,98081.59
2024-01-25T16:12:41.484Z,98053.28
2024-01-25T16:15:10.192Z,98075.84
2024-01-25T16:17:37.832Z,98084.88
2024-01-25T16:20:07.824Z,98095.38
2024-01-25T16:22:38.576Z,98090.44
2024-01-25T16:25:07.262Z,98086.44
2024-01-25T16:27:34.999Z,98087.97
2024-01-25T16:30:03.779Z,98091.97
2024-01-25T16:32:31.528Z,98096.13
2024-01-25T16:34:59.267Z,98106.13
2024-01-25T16:37:26.973Z,98095.00
2024-01-25T16:39:55.971Z,98094.84
2024-01-25T16:42:23.679Z,98101.00
2024-01-25T16:44:51.770Z,98099.50
2024-01-25T16:47:19.614Z,98101.84
2024-01-25T16:49:47.276Z,98104.88
2024-01-25T16:52:14.991Z,98105.38
2024-01-25T16:54:42.710Z,98102.25
2024-01-25T16:57:11.708Z,98105.88
2024-01-25T16:59:39.399Z,98110.69
2024-01-25T17:02:07.277Z,98101.06
2024-01-25T17:04:35.154Z,98095.63
2024-01-25T17:07:02.950Z,98095.47
2024-01-25T17:09:30.729Z,98098.63
2024-01-25T17:11:58.422Z,98105.91
2024-01-25T17:14:27.442Z,98103.94
2024-01-25T17:16:57.476Z,98102.63
2024-01-25T17:19:25.023Z,98107.44
2024-01-25T17:21:53.161Z,98100.81
2024-01-25T17:24:20.919Z,98109.09
2024-01-25T17:26:48.627Z,98113.25
2024-01-25T17:29:16.313Z,98113.28
2024-01-25T17:31:45.286Z,98115.59
2024-01-25T17:34:15.379Z,98119.69
2024-01-25T17:36:44.923Z,98120.69
2024-01-25T17:39:13.201Z,98125.66
2024-01-25T17:41:41.184Z,98117.53
2024-01-25T17:44:09.624Z,98120.84
2024-01-25T17:46:37.295Z,98121.16
2024-01-25T17:49:06.660Z,98122.31
2024-01-25T17:51:34.386Z,98122.94
2024-01-25T17:54:02.016Z,98121.00
2024-01-25T17:56:29.643Z,98118.34
2024-01-25T17:58:58.897Z,98112.84
2024-01-25T18:01:26.639Z,98105.09
2024-01-25T18:03:54.417Z,98103.25
2024-01-25T18:06:23.497Z,98105.09
2024-01-25T18:08:51.896Z,98105.41
2024-01-25T18:11:19.644Z,98084.47
2024-01-25T18:13:48.780Z,98114.66
2024-01-25T18:16:16.621Z,98110.00
2024-01-25T18:18:44.658Z,98108.69
2024-01-25T18:21:12.342Z,98108.63
2024-01-25T18:23:41.345Z,98098.53
2024-01-25T18:26:09.069Z,98103.47
2024-01-25T18:28:36.746Z,98111.75
2024-01-25T18:31:04.735Z,98115.38
2024-01-25T18:33:34.891Z,98111.75
2024-01-25T18:36:02.871Z,98097.50
2024-01-25T18:38:31.318Z,98107.44
2024-01-25T18:41:00.284Z,98102.81
2024-01-25T18:43:28.015Z,98091.03
2024-01-25T18:45:55.785Z,98093.84
2024-01-25T18:48:23.818Z,98095.97
2024-01-25T18:50:51.485Z,98095.47
2024-01-25T18:53:19.820Z,98095.13
2024-01-25T18:55:48.087Z,98091.13
2024-01-25T18:58:17.683Z,98084.81
2024-01-25T19:00:46.467Z,98079.00
2024-01-25T19:03:14.848Z,98097.16
2024-01-25T19:05:46.266Z,98099.16
2024-01-25T19:08:15.346Z,98095.00
2024-01-25T19:10:43.149Z,98098.47
2024-01-25T19:13:10.799Z,98094.31
2024-01-25T19:15:39.983Z,98094.13
2024-01-25T19:18:08.688Z,98069.41
2024-01-25T19:20:36.372Z,98093.28
2024-01-25T19:23:04.389Z,98090.97
2024-01-25T19:25:32.564Z,98075.09
2024-01-25T19:28:00.532Z,98087.19
2024-01-25T19:30:28.410Z,98077.41
2024-01-25T19:32:57.435Z,98085.41
2024-01-25T19:35:27.038Z,98084.25
2024-01-25T19:37:54.953Z,98082.28
2024-01-25T19:40:22.663Z,98077.50
2024-01-25T19:42:51.520Z,98085.28
2024-01-25T19:45:19.798Z,98080.78
2024-01-25T19:47:47.617Z,98083.16
2024-01-25T19:50:17.540Z,98090.75
2024-01-25T19:52:46.332Z,98089.47
2024-01-25T19:55:14.550Z,98084.38
2024-01-25T19:57:42.818Z,98073.28
2024-01-25T20:00:11.886Z,98074.47
2024-01-25T20:02:40.051Z,98074.97
2024-01-25T20:05:10.960Z,98080.94
2024-01-25T20:07:40.890Z,98081.59
2024-01-25T20:10:10.161Z,98083.09
2024-01-25T20:12:38.201Z,98078.53
2024-01-25T20:15:06.793Z,98070.03
2024-01-25T20:17:34.903Z,98074.19
2024-01-25T20:20:03.339Z,98075.31
2024-01-25T20:22:31.100Z,98071.38
2024-01-25T20:25:01.780Z,98077.81
2024-01-25T20:27:30.295Z,98078.97
2024-01-25T20:29:58.092Z,98079.81
2024-01-25T20:32:25.765Z,98075.03
2024-01-25T20:34:54.255Z,98075.88
2024-01-25T20:37:22.338Z,98077.53
2024-01-25T20:39:50.164Z,98079.84
2024-01-25T20:42:19.641Z,98072.72
2024-01-25T20:44:47.282Z,98074.88
2024-01-25T20:47:15.123Z,98051.16
2024-01-25T20:49:42.911Z,98077.69
2024-01-25T20:52:10.834Z,98041.38
2024-01-25T20:54:38.545Z,98062.94
2024-01-25T20:57:06.810Z,98067.22
2024-01-25T20:59:35.861Z,98065.25
2024-01-25T21:02:04.059Z,98063.75
2024-01-25T21:04:33.226Z,98064.94
2024-01-25T21:07:01.488Z,98063.78
2024-01-25T21:09:29.767Z,98058.78
2024-01-25T21:11:58.026Z,98055.97
2024-01-25T21:14:27.377Z,98061.28
2024-01-25T21:16:56.385Z,98066.56
2024-01-25T21:19:24.201Z,98057.63
2024-01-25T21:21:52.050Z,98052.84
2024-01-25T21:24:19.862Z,98067.72
2024-01-25T21:26:47.567Z,98067.41
2024-01-25T21:29:16.206Z,98069.06
2024-01-25T21:31:44.937Z,98076.69
2024-01-25T21:34:14.401Z,98069.44
2024-01-25T21:36:42.378Z,98073.25
2024-01-25T21:39:10.203Z,98080.88
2024-01-25T21:41:37.810Z,98067.97
2024-01-25T21:44:06.286Z,98070.63
2024-01-25T21:46:34.026Z,98074.94
2024-01-25T21:49:01.845Z,98068.78
2024-01-25T21:51:30.912Z,98076.22
2024-01-25T21:53:58.742Z,98069.44
2024-01-25T21:56:26.491Z,98080.69
2024-01-25T21:58:54.499Z,98075.56
2024-01-25T22:01:22.312Z,98065.63
2024-01-25T22:03:50.144Z,98070.59
2024-01-25T22:06:19.398Z,98075.38
2024-01-25T22:08:48.568Z,98064.78
2024-01-25T22:11:17.938Z,98071.59
2024-01-25T22:13:45.602Z,98066.13
2024-01-25T22:16:13.209Z,98074.38
2024-01-25T22:18:41.523Z,98028.47
2024-01-25T22:21:10.740Z,98053.38
2024-01-25T22:23:38.396Z,98060.31
2024-01-25T22:26:07.902Z,98057.47
2024-01-25T22:28:35.606Z,98054.84
2024-01-25T22:31:03.447Z,98057.47
2024-01-25T22:33:31.142Z,98056.69
2024-01-25T22:35:58.793Z,98049.88
2024-01-25T22:38:26.422Z,98037.47
2024-01-25T22:40:54.086Z,98042.44
2024-01-25T22:43:24.442Z,98047.41
2024-01-25T22:45:53.991Z,98047.41
2024-01-25T22:48:22.095Z,98040.94
2024-01-25T22:50:49.854Z,98042.63
2024-01-25T22:53:17.493Z,98039.13
2024-01-25T22:55:45.165Z,98041.13
2024-01-25T22:58:12.995Z,98044.91
2024-01-25T23:00:42.292Z,98053.03
2024-01-25T23:03:10.344Z,98059.63
2024-01-25T23:05:38.135Z,98055.19
2024-01-25T23:08:06.703Z,98057.47
2024-01-25T23:10:34.391Z,98050.88
2024-01-25T23:13:04.097Z,98052.88
2024-01-25T23:15:33.822Z,98060.34
2024-01-25T23:18:03.468Z,98058.88
2024-01-25T23:20:31.447Z,98054.88
2024-01-25T23:22:59.289Z,98047.41
2024-01-25T23:25:26.882Z,98045.78
2024-01-25T23:27:54.806Z,98047.09
2024-01-25T23:30:22.823Z,98042.47
2024-01-25T23:32:51.753Z,98044.13
2024-01-25T23:35:21.600Z,98044.09
2024-01-25T23:37:49.254Z,98040.31
2024-01-25T23:40:17.675Z,98046.44
2024-01-25T23:42:45.613Z,98038.50
2024-01-25T23:45:14.646Z,98049.56
2024-01-25T23:47:42.886Z,98052.41
2024-01-25T23:50:12.158Z,98061.50
2024-01-25T23:52:41.979Z,98057.06
2024-01-25T23:55:10.181Z,98061.19
2024-01-25T23:57:38.175Z,98053.25
